Time;durP1;ratioP1;P1;durP2;ratioP2;P2;SDS_P1;SDS_P2;PMS_P1;PMS_P2;Temp;Humidity;BMP_temperature;BMP_pressure;BME280_temperature;BME280_humidity;BME280_pressure;Samples;Min_cycle;Max_cycle;Signal;HPM_P1;HPM_P2
2021/10/15 00:00:03;;;;;;;1.50;1.40;;;;;;;13.55;57.79;98928.59;3364156;29;20045;-79
2021/10/15 00:01:52;;;;;;;2.33;1.98;;;;;;;13.62;57.64;98945.38;3369536;29;20073;-78
2021/10/15 00:03:33;;;;;;;1.45;1.35;;;;;;;13.47;57.50;98943.94;3364246;29;20049;-76
2021/10/15 00:05:14;;;;;;;1.35;1.25;;;;;;;13.45;57.51;98953.25;3362895;29;20072;-77
2021/10/15 00:06:55;;;;;;;6.38;1.48;;;;;;;13.45;57.91;98950.56;3362480;29;20108;-79
2021/10/15 00:08:36;;;;;;;4.05;1.13;;;;;;;13.53;57.64;98959.09;3364645;29;20094;-77
2021/10/15 00:10:19;;;;;;;4.57;1.00;;;;;;;13.56;57.47;98962.38;3363875;29;20041;-77
2021/10/15 00:12:00;;;;;;;2.47;1.02;;;;;;;13.51;57.24;98947.81;3363416;29;20049;-76
2021/10/15 00:13:40;;;;;;;2.50;1.10;;;;;;;13.37;57.26;98949.09;3362785;29;20124;-76
2021/10/15 00:15:22;;;;;;;1.50;1.33;;;;;;;13.36;57.59;98958.16;3361149;29;20041;-77
2021/10/15 00:17:05;;;;;;;3.70;1.00;;;;;;;13.33;57.49;98955.94;3361207;29;20048;-78
2021/10/15 00:18:47;;;;;;;5.95;1.30;;;;;;;13.33;57.47;98966.63;3366976;29;20047;-80
2021/10/15 00:20:29;;;;;;;2.33;1.00;;;;;;;13.40;57.40;98969.19;3371083;29;20057;-78
2021/10/15 00:22:11;;;;;;;1.17;1.05;;;;;;;13.38;57.29;98976.66;3369875;29;20109;-78
2021/10/15 00:23:52;;;;;;;3.88;1.30;;;;;;;13.34;57.04;98970.94;3365288;29;20105;-78
2021/10/15 00:25:34;;;;;;;2.28;1.20;;;;;;;13.29;57.20;98982.34;3366156;29;20052;-77
2021/10/15 00:27:14;;;;;;;1.77;1.00;;;;;;;13.18;57.07;98987.63;3363996;29;20408;-78
2021/10/15 00:28:55;;;;;;;12.45;1.42;;;;;;;13.10;57.46;98986.91;3365139;29;20057;-80
2021/10/15 00:30:36;;;;;;;1.67;1.30;;;;;;;13.06;57.77;98996.44;3365972;29;20132;-78
2021/10/15 00:32:17;;;;;;;1.20;1.10;;;;;;;13.16;57.67;98984.38;3366765;29;20055;-78
2021/10/15 00:33:57;;;;;;;2.70;1.20;;;;;;;13.22;57.39;98996.84;3362491;29;20136;-79
2021/10/15 00:35:39;;;;;;;1.55;1.40;;;;;;;13.23;57.08;98995.78;3365649;29;20048;-78
2021/10/15 00:37:19;;;;;;;2.72;1.20;;;;;;;13.23;57.07;98991.25;3352431;29;20151;-78
2021/10/15 00:39:00;;;;;;;1.15;1.10;;;;;;;13.13;57.05;98998.19;3352097;29;20136;-77
2021/10/15 00:40:41;;;;;;;2.08;1.08;;;;;;;13.01;57.23;98993.66;3352037;29;20037;-76
2021/10/15 00:42:21;;;;;;;1.00;0.98;;;;;;;13.00;57.37;99000.00;3352216;29;20060;-75
2021/10/15 00:44:07;;;;;;;3.30;1.25;;;;;;;13.09;57.25;99006.69;3352465;29;20097;-77
2021/10/15 00:45:48;;;;;;;1.83;1.20;;;;;;;13.10;57.04;99012.84;3354026;29;20045;-76
2021/10/15 00:47:29;;;;;;;1.30;0.85;;;;;;;13.15;57.08;99012.19;3366202;29;20654;-77
2021/10/15 00:49:12;;;;;;;1.40;1.30;;;;;;;13.15;56.74;99014.84;3365456;29;20053;-76
2021/10/15 00:50:53;;;;;;;1.23;0.90;;;;;;;13.12;57.02;99007.28;3366406;29;20041;-76
2021/10/15 00:52:33;;;;;;;1.67;1.10;;;;;;;13.13;56.96;99004.38;3366433;29;20040;-76
2021/10/15 00:54:15;;;;;;;4.60;1.10;;;;;;;13.14;56.88;99016.72;3365771;29;20048;-76
2021/10/15 00:55:57;;;;;;;1.27;1.05;;;;;;;13.20;56.65;99017.66;3365913;29;20505;-76
2021/10/15 00:57:38;;;;;;;1.33;1.13;;;;;;;13.23;56.45;99027.91;3365636;29;20100;-77
2021/10/15 00:59:18;;;;;;;1.83;1.05;;;;;;;13.12;56.42;99026.81;3364839;29;20133;-76
2021/10/15 01:00:59;;;;;;;1.30;0.85;;;;;;;13.08;56.80;99034.47;3364566;29;20041;-77
2021/10/15 01:02:42;;;;;;;1.23;0.90;;;;;;;12.85;56.41;98999.59;3363933;29;20045;-76
2021/10/15 01:04:23;;;;;;;1.27;0.95;;;;;;;13.01;56.79;99028.41;3364601;29;20051;-76
2021/10/15 01:06:04;;;;;;;2.50;1.00;;;;;;;13.07;56.68;99032.84;3364282;29;20424;-76
2021/10/15 01:07:45;;;;;;;1.23;0.88;;;;;;;13.05;56.36;99026.09;3364380;29;20067;-75
2021/10/15 01:09:26;;;;;;;1.17;1.00;;;;;;;13.07;56.35;99034.72;3364803;29;20048;-76
2021/10/15 01:11:07;;;;;;;2.15;0.98;;;;;;;13.10;56.19;99043.09;3364410;29;20049;-77
2021/10/15 01:12:47;;;;;;;10.30;1.33;;;;;;;13.03;55.95;99053.06;3364881;29;20047;-77
2021/10/15 01:14:29;;;;;;;1.15;1.05;;;;;;;12.95;55.88;99036.53;3363832;29;20136;-76
2021/10/15 01:16:11;;;;;;;1.98;1.27;;;;;;;13.06;56.42;99043.75;3364333;29;20041;-76
2021/10/15 01:17:52;;;;;;;3.15;0.80;;;;;;;13.17;55.96;99060.94;3364464;29;20075;-76
2021/10/15 01:19:33;;;;;;;1.00;0.82;;;;;;;13.16;55.49;99037.88;3363564;29;20140;-77
2021/10/15 01:21:14;;;;;;;0.90;0.80;;;;;;;13.12;55.35;99058.94;3361057;29;20040;-77
2021/10/15 01:22:54;;;;;;;2.25;1.00;;;;;;;13.09;55.38;99060.19;3363831;29;20057;-77
2021/10/15 01:24:36;;;;;;;0.80;0.80;;;;;;;13.00;55.58;99058.06;3364272;29;20045;-77
2021/10/15 01:26:16;;;;;;;2.55;0.80;;;;;;;12.94;55.63;99059.78;3363705;29;20037;-75
2021/10/15 01:27:57;;;;;;;0.95;0.77;;;;;;;12.91;55.83;99072.75;3364535;29;20185;-76
2021/10/15 01:29:38;;;;;;;0.85;0.80;;;;;;;12.95;55.87;99068.63;3364343;29;20033;-78
2021/10/15 01:31:19;;;;;;;1.13;1.02;;;;;;;12.97;55.59;99071.88;3388321;29;20044;-75
2021/10/15 01:33:00;;;;;;;1.05;0.82;;;;;;;12.98;55.44;99070.84;3369456;29;20045;-77
2021/10/15 01:34:41;;;;;;;0.80;0.57;;;;;;;13.01;55.35;99087.28;3365361;29;20045;-77
2021/10/15 01:36:22;;;;;;;1.45;1.35;;;;;;;13.03;55.13;99085.16;3364128;29;20037;-77
2021/10/15 01:38:03;;;;;;;1.15;0.85;;;;;;;13.05;55.09;99072.38;3363011;29;20049;-77
2021/10/15 01:39:43;;;;;;;2.50;1.40;;;;;;;12.99;54.87;99081.31;3364761;29;20495;-78
2021/10/15 01:41:24;;;;;;;1.13;0.90;;;;;;;12.99;54.92;99092.03;3390264;29;20052;-77
2021/10/15 01:43:07;;;;;;;5.15;1.20;;;;;;;12.94;54.87;99096.41;3370628;29;20044;-76
2021/10/15 01:44:48;;;;;;;3.17;0.70;;;;;;;12.87;55.01;99099.97;3365333;29;20079;-79
2021/10/15 01:46:29;;;;;;;1.00;0.73;;;;;;;12.87;55.18;99099.97;3365055;29;20040;-77
2021/10/15 01:48:09;;;;;;;0.73;0.73;;;;;;;12.78;54.99;99101.31;3363505;29;20052;-77
2021/10/15 01:49:50;;;;;;;1.95;0.60;;;;;;;12.63;55.30;99096.34;3363977;29;20497;-77
2021/10/15 01:51:32;;;;;;;;;;;;;;;12.71;55.54;99099.75;3364260;29;20045;-75
2021/10/15 01:53:13;;;;;;;1.55;1.10;;;;;;;12.73;55.12;99097.69;3364268;29;19923;-78
2021/10/15 01:54:53;;;;;;;0.60;0.60;;;;;;;12.85;55.29;99101.22;3363923;29;20045;-77
2021/10/15 01:56:37;;;;;;;1.38;0.88;;;;;;;12.88;54.95;99106.13;3364202;29;20049;-77
2021/10/15 01:58:18;;;;;;;1.65;0.80;;;;;;;12.84;54.82;99100.41;3363157;29;20059;-77
2021/10/15 01:59:59;;;;;;;1.95;0.80;;;;;;;12.79;55.20;99113.66;3364264;29;20041;-77
2021/10/15 02:01:40;;;;;;;1.55;0.85;;;;;;;12.71;54.80;99110.47;3363953;29;20417;-77
2021/10/15 02:03:20;;;;;;;4.45;0.98;;;;;;;12.57;54.98;99112.44;3365276;29;20076;-75
2021/10/15 02:05:03;;;;;;;1.30;0.90;;;;;;;12.47;54.95;99115.66;3364710;29;20059;-76
2021/10/15 02:06:43;;;;;;;;;;;;;;;12.50;55.32;99117.06;3365093;29;20101;-76
2021/10/15 02:08:24;;;;;;;2.38;0.60;;;;;;;12.30;55.29;99101.22;3376699;29;19995;-79
2021/10/15 02:10:05;;;;;;;0.70;0.70;;;;;;;12.16;55.53;99093.31;3363584;29;20064;-81
2021/10/15 02:11:46;;;;;;;0.60;0.60;;;;;;;12.12;55.76;99107.34;3360911;29;20128;-77
2021/10/15 02:13:27;;;;;;;2.75;0.90;;;;;;;12.03;56.13;99122.81;3363817;29;20033;-78
2021/10/15 02:15:10;;;;;;;0.85;0.77;;;;;;;11.99;56.14;99118.94;3363412;29;20061;-79
2021/10/15 02:16:50;;;;;;;2.53;0.90;;;;;;;12.00;56.73;99118.72;3386876;29;20056;-76
2021/10/15 02:18:31;;;;;;;0.80;0.80;;;;;;;12.11;56.48;99117.22;3366163;29;20041;-76
2021/10/15 02:20:14;;;;;;;1.40;0.88;;;;;;;12.16;56.11;99130.72;3386746;29;20110;-78
2021/10/15 02:21:55;;;;;;;0.60;0.60;;;;;;;12.17;56.29;99129.69;3369592;29;20135;-77
2021/10/15 02:23:36;;;;;;;2.80;1.08;;;;;;;12.25;56.06;99133.13;3364440;29;20056;-76
2021/10/15 02:25:18;;;;;;;0.90;0.90;;;;;;;12.29;55.90;99139.63;3364541;29;20037;-75
2021/10/15 02:26:59;;;;;;;1.15;0.93;;;;;;;12.27;55.83;99131.84;3363888;29;20051;-77
2021/10/15 02:28:39;;;;;;;1.45;1.00;;;;;;;12.27;55.98;99142.53;3362961;29;20049;-77
2021/10/15 02:30:21;;;;;;;0.80;0.75;;;;;;;12.18;56.02;99131.31;3365329;29;20098;-76
2021/10/15 02:32:02;;;;;;;3.38;1.10;;;;;;;12.15;55.98;99142.44;3366243;29;20049;-77
2021/10/15 02:33:42;;;;;;;1.90;1.02;;;;;;;12.08;56.01;99144.34;3365570;29;20109;-76
2021/10/15 02:35:23;;;;;;;0.95;0.88;;;;;;;12.08;56.40;99148.84;3363586;29;20216;-76
2021/10/15 02:37:04;;;;;;;1.30;0.80;;;;;;;11.95;56.41;99128.41;3389006;29;20127;-77
2021/10/15 02:38:44;;;;;;;1.23;0.90;;;;;;;12.00;56.28;99139.25;3365440;29;20045;-79
2021/10/15 02:40:25;;;;;;;0.93;0.88;;;;;;;11.97;56.07;99142.38;3363567;29;20057;-77
2021/10/15 02:42:06;;;;;;;1.48;1.13;;;;;;;12.11;56.36;99143.91;3363212;29;20105;-76
2021/10/15 02:43:47;;;;;;;1.15;1.08;;;;;;;12.12;56.24;99158.91;3362219;29;20056;-77
2021/10/15 02:45:27;;;;;;;1.40;1.10;;;;;;;12.13;56.24;99163.22;3362676;29;20047;-76
2021/10/15 02:47:08;;;;;;;1.20;1.10;;;;;;;12.16;56.04;99162.78;3363109;29;20445;-77
2021/10/15 02:48:49;;;;;;;1.08;0.95;;;;;;;12.18;56.09;99176.75;3363651;29;20049;-80
2021/10/15 02:50:29;;;;;;;1.40;1.30;;;;;;;12.20;56.17;99161.28;3364989;29;20051;-78
2021/10/15 02:52:10;;;;;;;1.65;1.33;;;;;;;12.29;55.81;99171.69;3340583;29;20069;-77
2021/10/15 02:53:51;;;;;;;1.20;1.02;;;;;;;12.36;55.74;99172.47;3363294;29;20092;-79
2021/10/15 02:55:32;;;;;;;1.88;1.50;;;;;;;12.39;55.61;99174.69;3376629;29;20047;-79
2021/10/15 02:57:12;;;;;;;1.45;1.35;;;;;;;12.44;55.69;99188.22;3379317;29;20029;-79
2021/10/15 02:58:53;;;;;;;1.25;1.15;;;;;;;12.45;55.55;99187.22;3367171;29;20068;-78
2021/10/15 03:00:34;;;;;;;1.63;1.52;;;;;;;12.43;55.40;99183.94;3365021;29;20036;-78
2021/10/15 03:02:14;;;;;;;1.40;1.30;;;;;;;12.50;55.36;99194.56;3376248;29;20075;-77
2021/10/15 03:03:55;;;;;;;1.83;1.70;;;;;;;12.48;55.04;99181.41;3368228;29;20497;-75
2021/10/15 03:05:36;;;;;;;1.60;1.48;;;;;;;12.50;55.22;99195.38;3363537;29;20055;-75
2021/10/15 03:07:16;;;;;;;1.77;1.67;;;;;;;12.49;55.34;99190.25;3367433;29;20099;-76
2021/10/15 03:08:57;;;;;;;1.80;1.65;;;;;;;12.46;55.31;99204.06;3365816;29;20052;-77
2021/10/15 03:10:37;;;;;;;3.35;1.88;;;;;;;12.44;55.34;99191.75;3368452;29;20060;-77
2021/10/15 03:12:19;;;;;;;2.75;2.40;;;;;;;12.44;55.25;99214.94;3365153;29;20068;-78
2021/10/15 03:14:00;;;;;;;1.58;1.27;;;;;;;12.39;55.33;99207.63;3362802;29;20041;-78
2021/10/15 03:15:41;;;;;;;2.45;1.70;;;;;;;12.36;55.49;99193.84;3354854;29;20041;-79
2021/10/15 03:17:23;;;;;;;2.40;1.73;;;;;;;12.40;55.39;99206.56;3350588;29;20497;-76
2021/10/15 03:19:04;;;;;;;1.77;1.67;;;;;;;12.42;55.51;99198.34;3350121;29;20045;-77
2021/10/15 03:20:45;;;;;;;1.70;1.60;;;;;;;12.40;55.21;99205.75;3350431;29;20391;-77
2021/10/15 03:22:25;;;;;;;2.63;1.88;;;;;;;12.38;55.18;99218.50;3350520;29;20072;-78
2021/10/15 03:24:06;;;;;;;2.13;1.77;;;;;;;12.34;55.13;99202.09;3354054;29;20100;-77
2021/10/15 03:25:47;;;;;;;2.05;1.65;;;;;;;12.34;55.37;99201.25;3361441;29;20056;-77
2021/10/15 03:27:27;;;;;;;1.52;1.40;;;;;;;12.43;55.30;99216.81;3351814;29;20052;-79
2021/10/15 03:29:08;;;;;;;2.10;1.85;;;;;;;12.56;55.24;99213.22;3350326;29;20463;-76
2021/10/15 03:30:51;;;;;;;1.67;1.55;;;;;;;12.65;54.75;99227.13;3350300;29;20038;-78
2021/10/15 03:32:31;;;;;;;2.15;1.92;;;;;;;12.58;54.68;99231.72;3386222;29;20052;-77
2021/10/15 03:34:12;;;;;;;3.20;2.58;;;;;;;12.42;54.83;99207.16;3367728;29;20048;-76
2021/10/15 03:35:53;;;;;;;3.28;2.10;;;;;;;12.33;55.02;99223.69;3361391;29;20051;-78
2021/10/15 03:37:33;;;;;;;1.75;1.65;;;;;;;12.35;55.19;99229.63;3363403;29;20052;-76
2021/10/15 03:39:15;;;;;;;2.58;2.15;;;;;;;12.41;55.02;99236.78;3362783;29;20040;-77
2021/10/15 03:40:55;;;;;;;2.50;1.85;;;;;;;12.39;54.95;99236.16;3362826;29;20048;-76
2021/10/15 03:42:36;;;;;;;3.17;1.70;;;;;;;12.36;55.23;99239.28;3363214;29;20051;-76
2021/10/15 03:44:17;;;;;;;3.47;1.95;;;;;;;12.32;55.14;99225.53;3363508;29;20040;-78
2021/10/15 03:45:58;;;;;;;2.38;2.17;;;;;;;12.23;55.12;99233.00;3359795;29;20040;-77
2021/10/15 03:47:39;;;;;;;5.55;2.42;;;;;;;12.20;55.28;99244.13;3361057;29;20045;-77
2021/10/15 03:49:19;;;;;;;4.55;2.45;;;;;;;12.13;55.25;99253.19;3363175;29;20048;-79
2021/10/15 03:51:00;;;;;;;2.45;2.15;;;;;;;12.05;55.54;99248.94;3363175;29;20041;-80
2021/10/15 03:52:41;;;;;;;3.90;2.20;;;;;;;12.10;55.77;99238.44;3362527;29;20089;-81
2021/10/15 03:54:22;;;;;;;2.17;1.98;;;;;;;12.13;55.60;99251.38;3359141;29;20048;-80
2021/10/15 03:56:02;;;;;;;2.22;2.03;;;;;;;12.18;55.55;99229.34;3361015;29;20045;-80
2021/10/15 03:57:43;;;;;;;2.92;2.53;;;;;;;12.30;55.10;99254.34;3364021;29;20083;-82
2021/10/15 03:59:24;;;;;;;2.30;2.10;;;;;;;12.39;54.97;99265.56;3363497;29;20085;-78
2021/10/15 04:01:04;;;;;;;3.75;2.63;;;;;;;12.29;55.19;99251.88;3362293;29;20568;-78
2021/10/15 04:02:46;;;;;;;4.05;2.20;;;;;;;12.35;54.97;99253.69;3362675;29;20136;-77
2021/10/15 04:04:28;;;;;;;2.45;2.25;;;;;;;12.39;54.92;99260.22;3362418;29;20045;-79
2021/10/15 04:06:09;;;;;;;2.92;2.63;;;;;;;12.30;54.69;99264.22;3370938;29;20053;-79
2021/10/15 04:07:49;;;;;;;4.43;2.50;;;;;;;11.95;55.08;99269.94;3365669;29;20076;-77
2021/10/15 04:09:30;;;;;;;2.80;2.30;;;;;;;11.60;55.87;99272.97;3362863;29;20072;-78
2021/10/15 04:11:11;;;;;;;3.90;2.97;;;;;;;11.30;56.49;99270.78;3362675;29;20398;-76
2021/10/15 04:12:51;;;;;;;3.45;2.85;;;;;;;11.08;57.14;99290.75;3362546;29;20100;-77
2021/10/15 04:14:32;;;;;;;2.70;2.25;;;;;;;10.86;57.71;99282.16;3362492;29;20508;-78
2021/10/15 04:16:13;;;;;;;5.50;2.50;;;;;;;10.72;57.96;99292.03;3358095;29;20048;-78
2021/10/15 04:17:53;;;;;;;4.53;2.97;;;;;;;10.56;58.51;99292.41;3349699;29;20056;-78
2021/10/15 04:19:35;;;;;;;3.55;2.80;;;;;;;10.46;59.08;99290.97;3361287;29;20512;-75
2021/10/15 04:21:16;;;;;;;3.58;2.10;;;;;;;10.41;59.59;99290.78;3353729;29;20041;-77
2021/10/15 04:22:57;;;;;;;4.50;2.35;;;;;;;10.28;59.34;99297.94;3358713;29;20084;-77
2021/10/15 04:24:38;;;;;;;4.60;2.72;;;;;;;10.23;59.88;99311.81;3362406;29;20060;-80
2021/10/15 04:26:19;;;;;;;3.53;2.90;;;;;;;10.21;60.48;99296.03;3363114;29;20122;-75
2021/10/15 04:28:00;;;;;;;2.63;2.30;;;;;;;10.40;61.36;99306.94;3350525;29;20041;-75
2021/10/15 04:29:40;;;;;;;3.85;2.65;;;;;;;10.59;60.97;99310.69;3374531;29;20191;-76
2021/10/15 04:31:21;;;;;;;6.10;3.20;;;;;;;10.65;60.81;99302.66;3360945;29;20073;-76
2021/10/15 04:33:02;;;;;;;3.47;2.65;;;;;;;10.71;60.53;99309.03;3362758;29;20186;-77
2021/10/15 04:34:43;;;;;;;3.25;2.58;;;;;;;10.75;60.40;99318.25;3362922;29;20040;-76
2021/10/15 04:36:23;;;;;;;8.45;2.75;;;;;;;10.78;60.46;99311.69;3361869;29;20053;-77
2021/10/15 04:38:04;;;;;;;3.80;2.67;;;;;;;10.91;60.33;99320.50;3360594;29;20417;-77
2021/10/15 04:39:44;;;;;;;6.40;2.28;;;;;;;11.01;60.07;99317.44;3362774;29;20055;-77
2021/10/15 04:41:25;;;;;;;3.00;2.45;;;;;;;11.05;59.65;99325.84;3362311;29;20037;-76
2021/10/15 04:43:06;;;;;;;4.25;2.47;;;;;;;11.13;59.82;99317.63;3362657;29;20045;-77
2021/10/15 04:44:47;;;;;;;3.05;1.77;;;;;;;11.25;59.81;99326.63;3362616;29;20097;-76
2021/10/15 04:46:28;;;;;;;4.32;2.70;;;;;;;11.33;59.66;99342.44;3361997;29;20536;-78
2021/10/15 04:48:08;;;;;;;4.80;2.70;;;;;;;11.38;59.03;99324.97;3360756;29;20052;-74
2021/10/15 04:49:49;;;;;;;4.57;2.67;;;;;;;11.41;58.81;99336.06;3362509;29;20067;-77
2021/10/15 04:51:30;;;;;;;5.53;2.20;;;;;;;11.44;58.73;99334.81;3361813;29;20524;-78
2021/10/15 04:53:10;;;;;;;3.30;2.92;;;;;;;11.44;58.50;99342.84;3362203;29;20097;-77
2021/10/15 04:54:52;;;;;;;3.22;2.53;;;;;;;11.40;58.50;99344.25;3362650;29;20045;-77
2021/10/15 04:56:33;;;;;;;3.20;2.42;;;;;;;11.37;58.89;99344.69;3363339;29;20072;-78
2021/10/15 04:58:14;;;;;;;3.47;2.33;;;;;;;11.40;59.12;99346.94;3362508;29;20051;-77
2021/10/15 04:59:55;;;;;;;5.18;2.28;;;;;;;11.47;59.05;99350.41;3356885;29;20672;-76
2021/10/15 05:01:35;;;;;;;6.43;2.40;;;;;;;11.56;58.78;99355.31;3373217;29;20045;-80
2021/10/15 05:03:16;;;;;;;5.78;2.90;;;;;;;11.57;58.31;99358.81;3365374;29;20053;-79
2021/10/15 05:04:57;;;;;;;3.28;2.67;;;;;;;11.54;58.33;99353.91;3362451;29;20045;-80
2021/10/15 05:06:38;;;;;;;3.30;2.95;;;;;;;11.42;58.26;99355.56;3350674;29;20049;-78
2021/10/15 05:08:21;;;;;;;4.63;3.15;;;;;;;11.23;58.50;99365.22;3369213;29;20404;-78
2021/10/15 05:10:03;;;;;;;8.65;3.13;;;;;;;10.99;58.85;99362.13;3377762;29;20049;-77
2021/10/15 05:11:46;;;;;;;3.45;2.50;;;;;;;10.85;59.35;99366.66;3355595;29;20049;-77
2021/10/15 05:13:26;;;;;;;3.72;2.97;;;;;;;10.74;59.51;99369.94;3363206;29;20053;-78
2021/10/15 05:15:11;;;;;;;2.63;2.40;;;;;;;10.64;59.88;99366.84;3364571;29;20097;-80
2021/10/15 05:16:52;;;;;;;4.47;3.17;;;;;;;10.47;60.01;99377.88;3365380;29;20131;-76
2021/10/15 05:18:33;;;;;;;4.90;2.38;;;;;;;10.34;60.08;99372.50;3363060;29;20504;-74
2021/10/15 05:20:15;;;;;;;5.35;2.97;;;;;;;10.31;60.92;99369.44;3363571;29;20045;-75
2021/10/15 05:21:59;;;;;;;4.57;2.85;;;;;;;10.23;60.97;99376.56;3365410;29;20064;-75
2021/10/15 05:23:40;;;;;;;3.25;2.30;;;;;;;10.22;61.42;99374.91;3377997;29;20104;-76
2021/10/15 05:25:21;;;;;;;4.22;2.60;;;;;;;10.23;61.43;99371.22;3371943;29;20045;-76
2021/10/15 05:27:02;;;;;;;4.93;3.63;;;;;;;10.18;61.16;99391.50;3365216;29;20048;-76
2021/10/15 05:28:43;;;;;;;3.70;2.28;;;;;;;10.19;61.62;99387.78;3363084;29;20051;-78
2021/10/15 05:30:23;;;;;;;3.47;2.53;;;;;;;10.23;61.36;99387.22;3364234;29;20116;-78
2021/10/15 05:32:05;;;;;;;4.85;2.88;;;;;;;10.26;61.66;99386.81;3362137;29;20483;-76
2021/10/15 05:33:46;;;;;;;5.25;2.63;;;;;;;10.32;62.07;99393.19;3366277;29;20500;-75
2021/10/15 05:35:27;;;;;;;3.60;2.95;;;;;;;10.40;61.59;99398.38;3364084;29;20052;-75
2021/10/15 05:37:07;;;;;;;5.25;2.10;;;;;;;10.43;61.20;99392.63;3364446;29;20105;-78
2021/10/15 05:38:48;;;;;;;6.75;3.17;;;;;;;10.48;61.44;99406.19;3360090;29;20132;-78
2021/10/15 05:40:29;;;;;;;6.32;2.60;;;;;;;10.50;61.87;99391.81;3364159;29;20470;-78
2021/10/15 05:42:12;;;;;;;21.05;3.47;;;;;;;10.55;61.55;99398.19;3363646;29;20397;-79
2021/10/15 05:43:53;;;;;;;3.05;2.30;;;;;;;10.62;61.24;99404.34;3352136;29;20049;-77
2021/10/15 05:45:33;;;;;;;3.83;2.80;;;;;;;10.63;60.87;99407.84;3351021;29;20097;-76
2021/10/15 05:47:14;;;;;;;3.35;2.33;;;;;;;10.63;61.11;99407.84;3351394;29;20053;-76
2021/10/15 05:48:55;;;;;;;3.60;2.55;;;;;;;10.69;60.99;99421.19;3351965;29;20110;-74
2021/10/15 05:50:36;;;;;;;3.20;2.42;;;;;;;10.71;61.07;99402.31;3351621;29;20513;-77
2021/10/15 05:53:06;;;;;;;4.05;2.83;;;;;;;10.75;61.04;99410.75;3354405;29;20045;-75
2021/10/15 05:54:28;;;;;;;5.32;2.72;;;;;;;10.76;60.95;99412.38;3360032;29;20045;-76
2021/10/15 05:56:35;;;;;;;4.78;2.67;;;;;;;10.82;61.15;99420.41;3351566;29;20045;-76
2021/10/15 06:00:16;;;;;;;3.67;2.40;;;;;;;10.98;60.30;99427.19;3362583;29;20053;-76
2021/10/15 06:02:01;;;;;;;5.20;2.40;;;;;;;11.04;60.41;99420.19;3361522;29;20412;-79
2021/10/15 06:03:45;;;;;;;2.58;1.98;;;;;;;11.09;59.96;99426.56;3349473;29;20413;-77
2021/10/15 06:14:45;;;;;;;2.13;1.95;;;;;;;11.18;59.30;99442.34;3366517;29;20059;-76
2021/10/15 06:16:28;;;;;;;2.60;2.33;;;;;;;11.18;59.28;99437.88;3391774;29;20547;-77
2021/10/15 06:18:19;;;;;;;5.32;2.25;;;;;;;11.26;59.01;99450.19;3368591;29;20045;-77
2021/10/15 06:20:00;;;;;;;3.58;2.83;;;;;;;11.21;58.97;99448.13;3364645;29;20539;-77
2021/10/15 06:21:43;;;;;;;2.22;1.70;;;;;;;11.25;59.13;99449.34;3365077;29;20056;-77
2021/10/15 06:23:23;;;;;;;4.75;2.28;;;;;;;11.29;58.75;99445.25;3362721;29;20045;-75
2021/10/15 06:25:05;;;;;;;2.83;1.88;;;;;;;11.34;58.70;99442.78;3363573;29;20331;-77
2021/10/15 06:26:46;;;;;;;3.47;2.20;;;;;;;11.37;59.01;99446.88;3363860;29;20052;-76
2021/10/15 06:28:27;;;;;;;2.28;1.70;;;;;;;11.53;58.60;99453.66;3360164;29;20065;-77
2021/10/15 06:30:08;;;;;;;3.22;1.95;;;;;;;11.62;58.36;99460.44;3362357;29;20048;-77
2021/10/15 06:31:49;;;;;;;2.22;2.00;;;;;;;11.60;57.75;99454.47;3363504;29;20041;-76
2021/10/15 06:33:30;;;;;;;7.25;2.20;;;;;;;11.58;58.06;99467.19;3363220;29;20516;-76
2021/10/15 06:35:10;;;;;;;2.58;1.70;;;;;;;11.64;57.94;99463.72;3363359;29;20045;-76
2021/10/15 06:36:51;;;;;;;2.97;1.83;;;;;;;11.71;57.67;99459.16;3356147;29;20045;-77
2021/10/15 06:38:31;;;;;;;4.25;1.90;;;;;;;11.82;57.63;99470.25;3350674;29;20461;-76
2021/10/15 06:40:13;;;;;;;2.60;2.10;;;;;;;11.92;57.34;99468.81;3351205;29;20095;-76
2021/10/15 06:41:53;;;;;;;3.60;2.30;;;;;;;12.03;57.13;99472.72;3363258;29;20078;-76
2021/10/15 06:43:35;;;;;;;4.13;2.00;;;;;;;12.11;56.60;99472.50;3365158;29;20545;-76
2021/10/15 06:45:16;;;;;;;3.22;1.80;;;;;;;12.09;56.34;99479.88;3365747;29;20044;-76
2021/10/15 06:46:57;;;;;;;2.95;1.88;;;;;;;12.09;56.45;99477.22;3362742;29;20053;-76
2021/10/15 06:48:37;;;;;;;3.15;2.00;;;;;;;12.13;56.51;99465.09;3361478;29;20045;-76
2021/10/15 06:50:18;;;;;;;3.17;2.40;;;;;;;12.14;56.32;99476.59;3363469;29;20093;-76
2021/10/15 06:51:59;;;;;;;3.00;2.10;;;;;;;12.13;56.31;99481.13;3362559;29;20131;-76
2021/10/15 06:53:39;;;;;;;3.75;2.13;;;;;;;12.16;56.17;99485.22;3362909;29;20033;-77
2021/10/15 06:55:21;;;;;;;2.67;1.85;;;;;;;12.20;56.17;99481.09;3363306;29;20144;-77
2021/10/15 06:57:02;;;;;;;3.78;2.13;;;;;;;12.22;56.18;99477.19;3362367;29;20580;-76
2021/10/15 06:58:43;;;;;;;3.00;1.60;;;;;;;12.27;56.03;99489.09;3363347;29;20052;-76
2021/10/15 07:00:24;;;;;;;4.80;2.03;;;;;;;12.22;55.83;99490.53;3362836;29;20486;-76
2021/10/15 07:02:04;;;;;;;4.13;2.00;;;;;;;12.15;55.71;99497.75;3362965;29;20040;-75
2021/10/15 07:03:45;;;;;;;2.10;1.85;;;;;;;12.11;55.71;99490.38;3362441;29;20049;-78
2021/10/15 07:05:26;;;;;;;2.50;1.92;;;;;;;12.12;55.56;99495.50;3361800;29;20505;-79
2021/10/15 07:07:07;;;;;;;3.38;1.42;;;;;;;12.19;55.72;99490.16;3363075;29;20489;-75
2021/10/15 07:08:48;;;;;;;2.70;1.67;;;;;;;12.24;55.42;99495.69;3362376;29;20037;-77
2021/10/15 07:10:30;;;;;;;11.90;2.25;;;;;;;12.16;55.18;99491.38;3362415;29;20086;-76
2021/10/15 07:12:11;;;;;;;2.83;1.75;;;;;;;12.18;55.73;99492.00;3388049;29;20045;-77
2021/10/15 07:13:51;;;;;;;4.15;1.60;;;;;;;12.22;55.51;99493.22;3367706;29;20132;-77
2021/10/15 07:15:33;;;;;;;4.95;1.98;;;;;;;12.25;55.14;99488.47;3360912;29;20193;-77
2021/10/15 07:17:14;;;;;;;4.00;2.28;;;;;;;12.25;55.06;99501.84;3363026;29;20048;-76
2021/10/15 07:18:54;;;;;;;6.65;1.83;;;;;;;12.17;55.28;99511.72;3363259;29;20087;-77
2021/10/15 07:20:36;;;;;;;4.00;2.28;;;;;;;12.08;55.13;99504.97;3362876;29;20041;-76
2021/10/15 07:22:16;;;;;;;2.88;1.75;;;;;;;12.05;55.55;99499.22;3362903;29;20036;-76
2021/10/15 07:23:57;;;;;;;4.85;2.05;;;;;;;12.08;55.34;99499.63;3362447;29;20132;-76
2021/10/15 07:25:39;;;;;;;3.47;1.90;;;;;;;12.11;55.16;99503.75;3360471;29;20048;-76
2021/10/15 07:27:21;;;;;;;2.67;1.88;;;;;;;12.06;55.17;99495.53;3350265;29;20069;-76
2021/10/15 07:29:01;;;;;;;;;;;;;;;12.18;55.12;99518.72;3359384;29;20573;-76
2021/10/15 07:30:42;;;;;;;7.20;2.60;;;;;;;12.09;55.12;99514.63;3362219;29;19927;-75
2021/10/15 07:32:23;;;;;;;3.03;2.30;;;;;;;12.03;55.14;99515.47;3361227;29;20041;-75
2021/10/15 07:34:05;;;;;;;3.80;2.28;;;;;;;11.98;55.34;99524.09;3362497;29;20121;-77
2021/10/15 07:35:47;;;;;;;3.25;1.90;;;;;;;12.02;55.42;99527.16;3349255;29;20155;-78
2021/10/15 07:37:28;;;;;;;2.38;1.80;;;;;;;12.10;55.20;99520.78;3359998;29;20068;-78
2021/10/15 07:39:11;;;;;;;2.55;1.73;;;;;;;12.19;54.93;99531.03;3362742;29;20469;-77
2021/10/15 07:40:51;;;;;;;3.03;1.80;;;;;;;12.25;54.60;99531.22;3362365;29;20054;-77
2021/10/15 07:42:33;;;;;;;2.78;2.05;;;;;;;12.27;54.80;99530.00;3362801;29;20060;-77
2021/10/15 07:44:14;;;;;;;3.22;2.05;;;;;;;12.33;54.67;99525.66;3362830;29;20516;-77
2021/10/15 07:45:54;;;;;;;4.18;1.30;;;;;;;12.35;54.53;99515.59;3361216;29;20045;-77
2021/10/15 07:47:35;;;;;;;2.38;1.80;;;;;;;12.56;54.13;99531.34;3362221;29;20045;-77
2021/10/15 07:49:16;;;;;;;3.35;1.73;;;;;;;12.67;53.74;99529.84;3362270;29;20416;-77
2021/10/15 07:50:57;;;;;;;3.35;1.85;;;;;;;12.87;53.59;99537.78;3362384;29;20048;-76
2021/10/15 07:52:41;;;;;;;4.00;2.05;;;;;;;12.95;53.09;99542.06;3362390;29;20055;-77
2021/10/15 07:54:21;;;;;;;2.42;1.60;;;;;;;12.97;53.10;99537.34;3362736;29;20041;-77
2021/10/15 07:56:02;;;;;;;1.38;1.10;;;;;;;12.99;53.10;99538.78;3362080;29;20132;-77
2021/10/15 07:57:43;;;;;;;2.45;1.60;;;;;;;13.01;52.72;99544.72;3362645;29;20049;-76
2021/10/15 07:59:24;;;;;;;3.53;1.60;;;;;;;12.96;52.56;99544.56;3362294;29;20131;-75
2021/10/15 08:01:05;;;;;;;4.60;1.95;;;;;;;12.85;52.55;99540.66;3361894;29;20049;-78
2021/10/15 08:02:47;;;;;;;1.95;1.50;;;;;;;12.69;52.67;99546.50;3361906;29;20067;-76
2021/10/15 08:04:28;;;;;;;2.67;1.77;;;;;;;12.62;52.88;99556.41;3362293;29;20136;-76
2021/10/15 08:06:09;;;;;;;2.05;1.38;;;;;;;12.70;53.17;99550.84;3362668;29;20048;-78
2021/10/15 08:07:49;;;;;;;4.00;1.70;;;;;;;12.84;52.99;99540.91;3362324;29;20116;-77